createdAt,value
2018-12-29T02:41:40.528Z,0
2018-12-29T06:42:34.705Z,3
2018-12-29T06:50:44.560Z,7
2018-12-29T06:54:18.040Z,10
2018-12-29T06:58:21.999Z,13
2018-12-29T07:00:23.986Z,17
2018-12-29T07:00:53.965Z,20
2018-12-29T07:01:54.925Z,23
2018-12-29T07:02:25.958Z,27
2018-12-29T07:02:55.927Z,33
2018-12-29T07:03:26.957Z,37
2018-12-29T07:03:56.940Z,40
2018-12-29T07:04:27.962Z,43
2018-12-29T07:04:57.954Z,47
2018-12-29T07:06:29.942Z,50
2018-12-29T07:06:59.962Z,53
2018-12-29T07:07:30.936Z,57
2018-12-29T07:08:00.884Z,60
2018-12-29T07:08:31.898Z,67
2018-12-29T07:09:01.937Z,73
2018-12-29T07:09:32.914Z,80
2018-12-29T07:10:02.917Z,87
2018-12-29T07:10:33.872Z,93
2018-12-29T07:11:03.921Z,97
2018-12-29T07:11:34.871Z,100
2018-12-29T07:12:04.847Z,103
2018-12-29T07:12:35.953Z,110
2018-12-29T07:13:05.903Z,113
2018-12-29T07:13:37.033Z,120
2018-12-29T07:14:06.934Z,127
2018-12-29T07:14:37.833Z,133
2018-12-29T07:15:07.830Z,140
2018-12-29T07:15:38.856Z,147
2018-12-29T07:16:07.903Z,157
2018-12-29T07:16:42.307Z,160
2018-12-29T07:17:08.553Z,167
2018-12-29T07:17:39.589Z,173
2018-12-29T07:18:09.560Z,180
2018-12-29T07:18:40.583Z,187
2018-12-29T07:19:10.695Z,190
2018-12-29T07:19:41.672Z,197
2018-12-29T07:20:11.647Z,200
2018-12-29T07:20:42.638Z,207
2018-12-29T07:21:12.730Z,213
2018-12-29T07:22:13.663Z,200
2018-12-29T07:22:43.712Z,187
2018-12-29T07:23:13.720Z,167
2018-12-29T07:23:43.717Z,170
2018-12-29T07:24:13.732Z,163
2018-12-29T07:24:44.769Z,157
2018-12-29T07:25:14.816Z,170
2018-12-29T07:25:44.817Z,190
2018-12-29T07:26:14.829Z,207
2018-12-29T07:26:45.869Z,237
2018-12-29T07:27:15.853Z,287
2018-12-29T07:27:46.835Z,320
2018-12-29T07:28:16.856Z,343
2018-12-29T07:28:47.910Z,360
2018-12-29T07:29:17.879Z,383
2018-12-29T07:29:48.939Z,400
2018-12-29T07:30:18.940Z,433
2018-12-29T07:30:49.921Z,463
2018-12-29T07:31:19.938Z,493
2018-12-29T07:31:49.951Z,530
2018-12-29T07:32:19.973Z,563
2018-12-29T07:32:51.073Z,583
2018-12-29T07:33:21.028Z,613
2018-12-29T07:33:52.108Z,653
2018-12-29T07:34:22.068Z,687
2018-12-29T07:34:53.047Z,737
2018-12-29T07:35:23.103Z,780
2018-12-29T07:35:53.081Z,837
2018-12-29T07:36:23.113Z,897
2018-12-29T07:36:53.151Z,920
2018-12-29T07:37:23.150Z,970
2018-12-29T07:37:54.208Z,1047
2018-12-29T07:38:24.654Z,1100
2018-12-29T07:38:55.295Z,1150
2018-12-29T07:39:25.228Z,1207
2018-12-29T07:39:56.277Z,1277
2018-12-29T07:40:26.270Z,1330
2018-12-29T07:40:56.281Z,1390
2018-12-29T07:41:26.303Z,1450
2018-12-29T07:41:57.413Z,1513
2018-12-29T07:42:27.721Z,1580
2018-12-29T07:42:58.346Z,1657
2018-12-29T07:43:28.355Z,1703
2018-12-29T07:43:58.384Z,1733
2018-12-29T07:44:28.368Z,1773
2018-12-29T07:44:59.970Z,1847
2018-12-29T07:45:29.543Z,1950
2018-12-29T07:46:01.028Z,2057
2018-12-29T07:46:30.449Z,2137
2018-12-29T07:47:01.487Z,2193
2018-12-29T07:47:31.471Z,2257
2018-12-29T07:48:03.157Z,2300
2018-12-29T07:48:32.532Z,2320
2018-12-29T07:49:02.541Z,2333
2018-12-29T07:49:32.614Z,2407
2018-12-29T07:50:03.583Z,2530
2018-12-29T07:50:33.617Z,2653
2018-12-29T07:51:04.599Z,2793
2018-12-29T07:51:34.588Z,2943
2018-12-29T07:52:04.638Z,3050
2018-12-29T07:52:34.632Z,3117
2018-12-29T07:53:05.645Z,3123
2018-12-29T07:53:35.675Z,3083
2018-12-29T07:54:06.777Z,3027
2018-12-29T07:54:39.631Z,2970
2018-12-29T07:55:08.773Z,2937
2018-12-29T07:55:39.779Z,2953
2018-12-29T07:56:09.904Z,3010
2018-12-29T07:56:40.838Z,3117
2018-12-29T07:57:10.804Z,3203
2018-12-29T07:57:41.874Z,3207
2018-12-29T07:58:11.839Z,3137
2018-12-29T07:58:42.895Z,3070
2018-12-29T07:59:12.819Z,3087
2018-12-29T07:59:43.797Z,3140
2018-12-29T08:00:13.783Z,3203
2018-12-29T08:00:44.781Z,3350
2018-12-29T08:01:14.805Z,3537
2018-12-29T08:01:45.811Z,3597
2018-12-29T08:02:15.876Z,3697
2018-12-29T08:02:46.778Z,3920
2018-12-29T08:03:16.823Z,4123
2018-12-29T08:03:47.913Z,4417
2018-12-29T08:04:17.814Z,4593
2018-12-29T08:04:48.822Z,4643
2018-12-29T08:05:18.814Z,4570
2018-12-29T08:05:49.769Z,4543
2018-12-29T08:06:19.739Z,4597
2018-12-29T08:06:50.804Z,4690
2018-12-29T08:07:19.838Z,4783
2018-12-29T08:07:50.855Z,4927
2018-12-29T08:08:19.916Z,5067
2018-12-29T08:08:51.020Z,5053
2018-12-29T08:09:20.996Z,4930
2018-12-29T08:09:52.014Z,4963
2018-12-29T08:10:22.008Z,5003
2018-12-29T08:10:52.083Z,4947
2018-12-29T08:11:22.074Z,4820
2018-12-29T08:11:53.057Z,4700
2018-12-29T08:12:23.077Z,4613
2018-12-29T08:12:53.119Z,4577
2018-12-29T08:13:23.098Z,4587
2018-12-29T08:13:54.201Z,4603
2018-12-29T08:14:24.212Z,4557
2018-12-29T08:14:55.192Z,4343
2018-12-29T08:15:25.182Z,4060
2018-12-29T08:15:56.253Z,3837
2018-12-29T08:16:26.237Z,3767
2018-12-29T08:16:56.892Z,3880
2018-12-29T08:17:26.252Z,4077
2018-12-29T08:17:57.284Z,4170
2018-12-29T08:18:27.332Z,4130
2018-12-29T08:18:57.339Z,4177
2018-12-29T08:19:27.347Z,4403
2018-12-29T08:19:58.340Z,4730
2018-12-29T08:20:28.365Z,4650
2018-12-29T08:20:58.434Z,4510
2018-12-29T08:21:28.429Z,4497
2018-12-29T08:21:59.426Z,4140
2018-12-29T08:22:29.437Z,3533
2018-12-29T08:23:00.664Z,2987
2018-12-29T08:23:30.481Z,2667
2018-12-29T08:24:01.493Z,2633
2018-12-29T08:24:31.464Z,2863
2018-12-29T08:25:02.530Z,3217
2018-12-29T08:25:32.534Z,3463
2018-12-29T08:26:02.549Z,3493
2018-12-29T08:26:32.590Z,3437
2018-12-29T08:27:03.581Z,3427
2018-12-29T08:27:33.612Z,3443
2018-12-29T08:28:04.564Z,3397
2018-12-29T08:28:34.582Z,3447
2018-12-29T08:29:04.622Z,3507
2018-12-29T08:29:34.622Z,3727
2018-12-29T08:30:05.671Z,3990
2018-12-29T08:30:35.690Z,4183
2018-12-29T08:31:06.731Z,4537
2018-12-29T08:31:36.791Z,5123
2018-12-29T08:32:06.759Z,5857
2018-12-29T08:32:36.785Z,6597
2018-12-29T08:33:06.807Z,7070
2018-12-29T08:33:36.811Z,7187
2018-12-29T08:34:07.010Z,7077
2018-12-29T08:34:36.848Z,6753
2018-12-29T08:35:07.813Z,6470
2018-12-29T08:35:37.832Z,6360
2018-12-29T08:36:08.844Z,6443
2018-12-29T08:36:38.911Z,6613
2018-12-29T08:37:09.936Z,7013
2018-12-29T08:37:39.930Z,7553
2018-12-29T08:38:10.917Z,7930
2018-12-29T08:39:10.963Z,7630
2018-12-29T08:39:41.085Z,7303
2018-12-29T08:40:12.048Z,7013
2018-12-29T08:40:42.053Z,6857
2018-12-29T08:41:12.058Z,6700
2018-12-29T08:41:42.122Z,6507
2018-12-29T08:42:12.090Z,6317
2018-12-29T08:42:42.067Z,6150
2018-12-29T08:43:13.143Z,6137
2018-12-29T08:43:43.152Z,6373
2018-12-29T08:44:13.221Z,6857
2018-12-29T08:44:43.206Z,7270
2018-12-29T08:45:14.199Z,7550
2018-12-29T08:45:44.190Z,7743
2018-12-29T08:46:14.209Z,8047
2018-12-29T08:46:44.275Z,8320
2018-12-29T08:47:15.288Z,8537
2018-12-29T08:47:45.266Z,8340
2018-12-29T08:48:16.310Z,8087
2018-12-29T08:48:46.331Z,7880
2018-12-29T08:49:17.333Z,7850
2018-12-29T08:49:47.391Z,8073
2018-12-29T08:50:18.348Z,8433
2018-12-29T08:50:51.312Z,8527
2018-12-29T08:51:20.627Z,8640
2018-12-29T08:51:51.479Z,9203
2018-12-29T08:52:21.553Z,10130
2018-12-29T08:52:52.557Z,10997
2018-12-29T08:53:22.882Z,11257
2018-12-29T08:53:54.835Z,10933
2018-12-29T08:54:23.961Z,10517
2018-12-29T08:54:54.943Z,10317
2018-12-29T08:55:25.075Z,10527
2018-12-29T08:55:56.066Z,10963
2018-12-29T08:56:25.994Z,11370
2018-12-29T08:56:57.076Z,11557
2018-12-29T08:57:27.059Z,11567
2018-12-29T08:57:58.071Z,11627
2018-12-29T08:58:28.004Z,11753
2018-12-29T08:58:58.975Z,11840
2018-12-29T08:59:29.013Z,11993
2018-12-29T08:59:59.989Z,12283
2018-12-29T09:00:29.984Z,12423
2018-12-29T09:01:01.104Z,12470
2018-12-29T09:01:30.966Z,12527
2018-12-29T09:02:01.986Z,13030
2018-12-29T09:02:31.937Z,14353
2018-12-29T09:03:02.986Z,16143
2018-12-29T09:03:32.965Z,17070
2018-12-29T09:04:03.953Z,16913
2018-12-29T09:04:34.014Z,15620
2018-12-29T09:05:04.934Z,13493
2018-12-29T09:05:34.917Z,12677
2018-12-29T09:06:06.042Z,13187
2018-12-29T09:06:35.933Z,13770
2018-12-29T09:07:06.943Z,15917
2018-12-29T09:07:36.925Z,14693
2018-12-29T09:08:07.909Z,14800
2018-12-29T09:08:37.941Z,15370
2018-12-29T09:09:08.939Z,15747
2018-12-29T09:09:38.927Z,16447
2018-12-29T09:10:10.059Z,15307
2018-12-29T09:10:39.918Z,14683
2018-12-29T09:11:10.899Z,14253
2018-12-29T09:11:40.886Z,14547
2018-12-29T09:12:11.932Z,14907
2018-12-29T09:12:42.003Z,15647
2018-12-29T09:13:12.903Z,16077
2018-12-29T09:13:42.905Z,16293
2018-12-29T09:14:13.867Z,15000
2018-12-29T09:14:43.840Z,14223
2018-12-29T09:15:14.889Z,14073
2018-12-29T09:15:44.834Z,14320
2018-12-29T09:16:15.850Z,15137
2018-12-29T09:16:45.869Z,15703
2018-12-29T09:17:16.857Z,16113
2018-12-29T09:17:46.910Z,16637
2018-12-29T09:18:18.024Z,17890
2018-12-29T09:18:49.753Z,18133
2018-12-29T09:19:17.928Z,18827
2018-12-29T09:19:47.981Z,19050
2018-12-29T09:20:17.938Z,19110
2018-12-29T09:20:47.983Z,20570
2018-12-29T09:21:18.080Z,21650
2018-12-29T09:21:48.049Z,21810
2018-12-29T09:22:18.119Z,21780
2018-12-29T09:22:48.144Z,21100
2018-12-29T09:23:18.179Z,21197
2018-12-29T09:23:48.144Z,21240
2018-12-29T09:24:18.197Z,20150
2018-12-29T09:24:48.236Z,18693
2018-12-29T09:25:18.349Z,18063
2018-12-29T09:25:48.293Z,18457
2018-12-29T09:26:18.366Z,17473
2018-12-29T09:26:48.350Z,14747
2018-12-29T09:27:18.414Z,11853
2018-12-29T09:27:48.421Z,9743
2018-12-29T09:28:18.472Z,8383
2018-12-29T09:28:48.484Z,7170
2018-12-29T09:29:18.536Z,6587
2018-12-29T09:29:48.507Z,6527
2018-12-29T09:30:18.555Z,6187
2018-12-29T09:30:48.608Z,6200
2018-12-29T09:31:18.657Z,6160
2018-12-29T09:31:48.679Z,6000
2018-12-29T09:32:18.717Z,5877
2018-12-29T09:32:48.721Z,6087
2018-12-29T09:33:18.758Z,5940
2018-12-29T09:33:48.809Z,6150
2018-12-29T09:34:22.342Z,6400
2018-12-29T09:34:48.880Z,7063
2018-12-29T09:35:18.902Z,7863
2018-12-29T09:35:48.903Z,8587
2018-12-29T09:36:18.972Z,8863
2018-12-29T09:36:48.965Z,8810
2018-12-29T09:37:19.005Z,8857
2018-12-29T09:37:49.073Z,9450
2018-12-29T09:38:19.085Z,10503
2018-12-29T09:38:49.147Z,11103
2018-12-29T09:39:19.147Z,11200
2018-12-29T09:39:49.150Z,11293
2018-12-29T09:40:19.269Z,11510
2018-12-29T09:40:49.259Z,11800
2018-12-29T09:41:19.281Z,12043
2018-12-29T09:41:49.290Z,12103
2018-12-29T09:42:19.400Z,12050
2018-12-29T09:42:49.307Z,12133
2018-12-29T09:43:19.391Z,12430
2018-12-29T09:43:49.438Z,12780
2018-12-29T09:44:19.426Z,13087
2018-12-29T09:44:49.444Z,13070
2018-12-29T09:45:19.530Z,12947
2018-12-29T09:45:49.723Z,12827
2018-12-29T09:46:19.550Z,12720
2018-12-29T09:46:49.559Z,12540
2018-12-29T09:47:19.886Z,12707
2018-12-29T09:47:49.651Z,13107
2018-12-29T09:48:19.678Z,13247
2018-12-29T09:48:49.687Z,13260
2018-12-29T09:49:19.745Z,13320
2018-12-29T09:49:49.754Z,13490
2018-12-29T09:50:19.797Z,13700
2018-12-29T09:50:49.798Z,13307
2018-12-29T09:51:19.871Z,12490
2018-12-29T09:51:49.902Z,11793
2018-12-29T09:52:19.914Z,11320
2018-12-29T09:52:49.927Z,10797
2018-12-29T09:53:20.002Z,10243
2018-12-29T09:53:50.097Z,9890
2018-12-29T09:54:20.047Z,9747
2018-12-29T09:54:50.079Z,9787
2018-12-29T09:55:20.133Z,9873
2018-12-29T09:55:50.192Z,9937
2018-12-29T09:56:20.206Z,9867
2018-12-29T09:56:50.207Z,9833
2018-12-29T09:57:20.295Z,9907
2018-12-29T09:57:50.272Z,10173
2018-12-29T09:58:20.298Z,10400
2018-12-29T09:58:50.401Z,10353
2018-12-29T09:59:20.343Z,9907
2018-12-29T09:59:50.439Z,9517
2018-12-29T10:00:20.456Z,9227
2018-12-29T10:00:50.432Z,8693
2018-12-29T10:01:20.474Z,8023
2018-12-29T10:01:50.538Z,7390
2018-12-29T10:02:20.564Z,6890
2018-12-29T10:02:50.627Z,6673
2018-12-29T10:03:20.623Z,6720
2018-12-29T10:03:50.697Z,6837
2018-12-29T10:04:20.698Z,6970
2018-12-29T10:04:50.670Z,7290
2018-12-29T10:05:20.756Z,7810
2018-12-29T10:05:50.809Z,8310
2018-12-29T10:06:20.802Z,8737
2018-12-29T10:06:50.846Z,9077
2018-12-29T10:07:20.844Z,9723
2018-12-29T10:07:50.905Z,10530
2018-12-29T10:08:20.911Z,11457
2018-12-29T10:08:50.965Z,12177
2018-12-29T10:09:20.973Z,12493
2018-12-29T10:09:51.008Z,12233
2018-12-29T10:10:21.039Z,11363
2018-12-29T10:10:51.088Z,10183
2018-12-29T10:11:21.148Z,9137
2018-12-29T10:11:51.126Z,8340
2018-12-29T10:12:21.145Z,7873
2018-12-29T10:12:51.207Z,7743
2018-12-29T10:13:21.240Z,7903
2018-12-29T10:13:51.216Z,8273
2018-12-29T10:14:21.305Z,8853
2018-12-29T10:14:51.281Z,9720
2018-12-29T10:15:21.364Z,10993
2018-12-29T10:15:51.534Z,10473
2018-12-29T10:16:21.436Z,10463
2018-12-29T10:16:51.494Z,11310
2018-12-29T10:17:26.849Z,12190
2018-12-29T10:17:51.527Z,12710
2018-12-29T10:18:21.549Z,12447
2018-12-29T10:18:51.560Z,11673
2018-12-29T10:19:21.568Z,10767
2018-12-29T10:19:51.632Z,10040
2018-12-29T10:20:21.675Z,9953
2018-12-29T10:20:51.695Z,10400
2018-12-29T10:21:21.782Z,11333
2018-12-29T10:21:51.736Z,12400
2018-12-29T10:22:21.794Z,13197
2018-12-29T10:22:51.765Z,13237
2018-12-29T10:23:21.860Z,12937
2018-12-29T10:23:51.893Z,12587
2018-12-29T10:24:21.915Z,12303
2018-12-29T10:24:51.934Z,12217
2018-12-29T10:25:22.008Z,12493
2018-12-29T10:25:52.021Z,13150
2018-12-29T10:26:22.065Z,14310
2018-12-29T10:26:52.067Z,15470
2018-12-29T10:27:22.110Z,15840
2018-12-29T10:27:52.129Z,15247
2018-12-29T10:28:22.129Z,15293
2018-12-29T10:28:52.244Z,21150
2018-12-29T10:29:22.227Z,16483
2018-12-29T10:29:52.342Z,14690
2018-12-29T10:30:22.295Z,21077
2018-12-29T10:30:52.289Z,20107
2018-12-29T10:31:22.316Z,15277
2018-12-29T10:31:52.394Z,16637
2018-12-29T10:32:22.431Z,17380
2018-12-29T10:32:52.617Z,17627
2018-12-29T10:33:22.442Z,17120
2018-12-29T10:33:52.498Z,16220
2018-12-29T10:34:22.496Z,15610
2018-12-29T10:34:52.526Z,15800
2018-12-29T10:35:22.555Z,16717
2018-12-29T10:35:52.579Z,17847
2018-12-29T10:36:22.624Z,17933
2018-12-29T10:36:52.702Z,17347
2018-12-29T10:37:22.697Z,16343
2018-12-29T10:37:52.826Z,15497
2018-12-29T10:38:22.749Z,15070
2018-12-29T10:38:52.763Z,14670
2018-12-29T10:39:22.855Z,14597
2018-12-29T10:39:52.815Z,14357
2018-12-29T10:40:22.900Z,14103
2018-12-29T10:40:52.885Z,14977
2018-12-29T10:41:22.954Z,16543
2018-12-29T10:41:52.945Z,17070
2018-12-29T10:42:23.004Z,16000
2018-12-29T10:42:53.011Z,14897
2018-12-29T10:43:23.113Z,13340
2018-12-29T10:43:53.089Z,13480
2018-12-29T10:44:23.217Z,15500
2018-12-29T10:44:53.154Z,18493
2018-12-29T10:45:23.180Z,21170
2018-12-29T10:45:53.203Z,22140
2018-12-29T10:46:23.229Z,21343
2018-12-29T10:46:53.287Z,20437
2018-12-29T10:47:23.346Z,19373
2018-12-29T10:47:53.340Z,18377
2018-12-29T10:48:23.401Z,17730
2018-12-29T10:48:53.461Z,17180
2018-12-29T10:49:23.464Z,17127
2018-12-29T10:49:53.468Z,17423
2018-12-29T10:50:23.477Z,18197
2018-12-29T10:50:53.550Z,19210
2018-12-29T10:51:23.589Z,19670
2018-12-29T10:51:53.582Z,19317
2018-12-29T10:52:23.609Z,18470
2018-12-29T10:52:53.625Z,17493
2018-12-29T10:53:23.723Z,16800
2018-12-29T10:53:53.700Z,16583
2018-12-29T10:54:23.863Z,16640
2018-12-29T10:54:53.765Z,16470
2018-12-29T10:55:23.868Z,16183
2018-12-29T10:55:53.821Z,16117
2018-12-29T10:56:23.892Z,16393
2018-12-29T10:56:53.939Z,16817
2018-12-29T10:57:23.960Z,17043
2018-12-29T10:57:53.998Z,16583
2018-12-29T10:58:24.011Z,16103
2018-12-29T10:58:54.060Z,16303
2018-12-29T10:59:24.133Z,16550
2018-12-29T10:59:54.122Z,16167
2018-12-29T11:00:24.138Z,15203
2018-12-29T11:00:54.193Z,14397
2018-12-29T11:01:24.193Z,14040
2018-12-29T11:01:54.239Z,14153
2018-12-29T11:02:24.252Z,14273
2018-12-29T11:02:54.319Z,14337
2018-12-29T11:03:24.316Z,14470
2018-12-29T11:03:54.354Z,14980
2018-12-29T11:04:24.401Z,15557
2018-12-29T11:04:54.438Z,15897
2018-12-29T11:05:24.451Z,15820
2018-12-29T11:05:54.489Z,15573
2018-12-29T11:06:24.510Z,15237
2018-12-29T11:06:54.551Z,14970
2018-12-29T11:07:24.572Z,15033
2018-12-29T11:07:54.593Z,15550
2018-12-29T11:08:24.647Z,16033
2018-12-29T11:08:54.626Z,16373
2018-12-29T11:09:24.656Z,16363
2018-12-29T11:09:54.663Z,16243
2018-12-29T11:10:24.754Z,16357
2018-12-29T11:10:54.782Z,16977
2018-12-29T11:11:24.815Z,17680
2018-12-29T11:11:54.836Z,18120
2018-12-29T11:12:24.888Z,18150
2018-12-29T11:12:54.919Z,18060
2018-12-29T11:13:24.929Z,18010
2018-12-29T11:13:54.984Z,18013
2018-12-29T11:14:24.988Z,18310
2018-12-29T11:14:55.032Z,19013
2018-12-29T11:15:25.065Z,20013
2018-12-29T11:15:55.065Z,21287
2018-12-29T11:16:25.117Z,22630
2018-12-29T11:16:55.161Z,23703
2018-12-29T11:17:25.184Z,24350
2018-12-29T11:17:55.176Z,24700
2018-12-29T11:18:25.225Z,24930
2018-12-29T11:18:55.286Z,25097
2018-12-29T11:19:25.299Z,25217
2018-12-29T11:19:55.335Z,25420
2018-12-29T11:20:25.370Z,25640
2018-12-29T11:20:55.356Z,25743
2018-12-29T11:21:25.411Z,25693
2018-12-29T11:22:25.488Z,25667
2018-12-29T11:22:55.472Z,25743
2018-12-29T11:23:25.542Z,25677
2018-12-29T11:23:55.529Z,25507
2018-12-29T11:24:25.581Z,25723
2018-12-29T11:24:55.605Z,25780
2018-12-29T11:25:25.624Z,25847
2018-12-29T11:25:55.687Z,25700
2018-12-29T11:26:25.689Z,25593
2018-12-29T11:26:55.727Z,25413
2018-12-29T11:27:25.778Z,25227
2018-12-29T11:27:55.806Z,24703
2018-12-29T11:28:25.827Z,24250
2018-12-29T11:28:55.831Z,23913
2018-12-29T11:29:25.881Z,23467
2018-12-29T11:29:55.885Z,22890
2018-12-29T11:30:26.003Z,22230
2018-12-29T11:30:56.050Z,21637
2018-12-29T11:31:25.994Z,21080
2018-12-29T11:31:56.058Z,20683
2018-12-29T11:32:26.079Z,20307
2018-12-29T11:32:56.245Z,19947
2018-12-29T11:33:26.169Z,19620
2018-12-29T11:33:56.167Z,19290
2018-12-29T11:34:26.229Z,18937
2018-12-29T11:34:56.212Z,18613
2018-12-29T11:35:28.858Z,18297
2018-12-29T11:35:56.732Z,18033
2018-12-29T11:36:26.324Z,17783
2018-12-29T11:36:56.468Z,17637
2018-12-29T11:37:26.384Z,17537
2018-12-29T11:37:56.427Z,17430
2018-12-29T11:38:26.478Z,17393
2018-12-29T11:38:56.494Z,17317
2018-12-29T11:39:26.535Z,17243
2018-12-29T11:39:56.545Z,17167
2018-12-29T11:40:26.600Z,17073
2018-12-29T11:40:56.602Z,16997
2018-12-29T11:41:26.664Z,16973
2018-12-29T11:41:56.683Z,16947
2018-12-29T11:42:26.715Z,16907
2018-12-29T11:42:56.704Z,16887
2018-12-29T11:43:26.790Z,16847
2018-12-29T11:43:56.796Z,16880
2018-12-29T11:44:26.839Z,16910
2018-12-29T11:44:56.853Z,16940
2018-12-29T11:45:26.915Z,16887
2018-12-29T11:45:56.911Z,16853
2018-12-29T11:46:26.959Z,16847
2018-12-29T11:46:57.024Z,16833
2018-12-29T11:47:27.025Z,16820
2018-12-29T11:47:57.044Z,16807
2018-12-29T11:48:27.080Z,16787
2018-12-29T11:48:57.103Z,16757
2018-12-29T11:49:27.137Z,16710
2018-12-29T11:49:57.161Z,16657
2018-12-29T11:50:27.255Z,16593
2018-12-29T11:50:57.217Z,16547
2018-12-29T11:51:27.269Z,16480
2018-12-29T11:51:57.298Z,16420
2018-12-29T11:52:27.293Z,16360
2018-12-29T11:52:57.341Z,16300
2018-12-29T11:53:27.417Z,16253
2018-12-29T11:53:57.403Z,16210
2018-12-29T11:54:27.465Z,16153
2018-12-29T11:54:57.423Z,16093
2018-12-29T11:55:27.512Z,16017
2018-12-29T11:55:57.483Z,15947
2018-12-29T11:56:27.613Z,15873
2018-12-29T11:56:57.583Z,15787
2018-12-29T11:57:27.637Z,15700
2018-12-29T11:57:57.649Z,15613
2018-12-29T11:58:27.694Z,15513
2018-12-29T11:58:57.700Z,15370
2018-12-29T11:59:27.771Z,15233
2018-12-29T11:59:57.768Z,15073
2018-12-29T12:00:27.823Z,14900
2018-12-29T12:00:57.819Z,14750
2018-12-29T12:01:27.898Z,14590
2018-12-29T12:01:57.885Z,14430
2018-12-29T12:02:27.961Z,14260
2018-12-29T12:02:57.960Z,14093
2018-12-29T12:03:27.974Z,13923
2018-12-29T12:03:58.026Z,13760
2018-12-29T12:04:28.076Z,13597
2018-12-29T12:04:59.061Z,13437
2018-12-29T12:05:28.181Z,13310
2018-12-29T12:05:58.132Z,13170
2018-12-29T12:06:28.252Z,13077
2018-12-29T12:06:58.204Z,12997
2018-12-29T12:07:28.234Z,12937
2018-12-29T12:07:58.255Z,12900
2018-12-29T12:08:28.331Z,12860
2018-12-29T12:08:58.315Z,12830
2018-12-29T12:09:28.337Z,12790
2018-12-29T12:09:58.398Z,12740
2018-12-29T12:10:28.610Z,12667
2018-12-29T12:10:58.464Z,12610
2018-12-29T12:11:28.551Z,12560
2018-12-29T12:11:58.518Z,12473
2018-12-29T12:12:28.563Z,12407
2018-12-29T12:12:58.621Z,12360
2018-12-29T12:13:28.627Z,12350
2018-12-29T12:13:58.609Z,12370
2018-12-29T12:14:28.685Z,12417
2018-12-29T12:14:58.690Z,12477
2018-12-29T12:15:28.735Z,12550
2018-12-29T12:15:58.713Z,12640
2018-12-29T12:16:28.809Z,12733
2018-12-29T12:16:58.795Z,12803
2018-12-29T12:17:28.891Z,12873
2018-12-29T12:17:58.883Z,12950
2018-12-29T12:18:28.886Z,13017
2018-12-29T12:18:58.991Z,13083
2018-12-29T12:19:28.957Z,13123
2018-12-29T12:19:58.985Z,13180
2018-12-29T12:20:29.099Z,13193
2018-12-29T12:20:59.034Z,13190
2018-12-29T12:21:29.101Z,13183
2018-12-29T12:21:59.112Z,13160
2018-12-29T12:22:29.133Z,13130
2018-12-29T12:22:59.159Z,13100
2018-12-29T12:23:29.458Z,13073
2018-12-29T12:23:59.235Z,13040
2018-12-29T12:24:29.279Z,13007
2018-12-29T12:24:59.321Z,12973
2018-12-29T12:25:29.372Z,12907
2018-12-29T12:25:59.338Z,12847
2018-12-29T12:26:29.410Z,12767
2018-12-29T12:26:59.422Z,12697
2018-12-29T12:27:29.453Z,12620
2018-12-29T12:27:59.490Z,12560
2018-12-29T12:28:29.642Z,12497
2018-12-29T12:28:59.567Z,12440
2018-12-29T12:29:29.659Z,12420
2018-12-29T12:29:59.684Z,12407
2018-12-29T12:30:29.671Z,12417
2018-12-29T12:30:59.698Z,12413
2018-12-29T12:31:29.747Z,12437
2018-12-29T12:31:59.760Z,12463
2018-12-29T12:32:29.807Z,12480
2018-12-29T12:32:59.823Z,12507
2018-12-29T12:33:59.884Z,12513
2018-12-29T12:34:29.877Z,12487
2018-12-29T12:34:59.946Z,12443
2018-12-29T12:35:30.004Z,12380
2018-12-29T12:36:00.197Z,12300
2018-12-29T12:36:30.119Z,12230
2018-12-29T12:37:00.069Z,12157
2018-12-29T12:37:30.094Z,12083
2018-12-29T12:38:00.121Z,12010
2018-12-29T12:38:30.157Z,11960
2018-12-29T12:39:00.208Z,11903
2018-12-29T12:39:30.231Z,11857
2018-12-29T12:40:01.755Z,11800
2018-12-29T12:40:30.246Z,11740
2018-12-29T12:41:02.490Z,11700
2018-12-29T12:41:30.336Z,11637
2018-12-29T12:42:02.137Z,11577
2018-12-29T12:42:30.404Z,11520
2018-12-29T12:43:01.155Z,11470
2018-12-29T12:43:30.466Z,11423
2018-12-29T12:44:01.907Z,11353
2018-12-29T12:44:30.541Z,11290
2018-12-29T12:45:01.328Z,11210
2018-12-29T12:45:30.546Z,11153
2018-12-29T12:46:00.611Z,11163
2018-12-29T12:46:30.635Z,11170
2018-12-29T12:47:01.020Z,11160
2018-12-29T12:47:30.719Z,11127
2018-12-29T12:48:04.971Z,11083
2018-12-29T12:48:30.779Z,11027
2018-12-29T12:49:00.958Z,10957
2018-12-29T12:49:30.834Z,10877
2018-12-29T12:50:00.808Z,10780
2018-12-29T12:50:30.904Z,10667
2018-12-29T12:51:00.927Z,10530
2018-12-29T12:51:30.925Z,10360
2018-12-29T12:52:01.019Z,10180
2018-12-29T12:52:31.055Z,9977
2018-12-29T12:53:00.996Z,9797
2018-12-29T12:53:31.070Z,9630
2018-12-29T12:54:01.066Z,9490
2018-12-29T12:54:31.153Z,9387
2018-12-29T12:55:01.118Z,9307
2018-12-29T12:55:31.201Z,9240
2018-12-29T12:56:01.188Z,9203
2018-12-29T12:56:31.231Z,9177
2018-12-29T12:57:01.699Z,9150
2018-12-29T12:57:31.349Z,9143
2018-12-29T12:58:01.379Z,9130
2018-12-29T12:58:31.392Z,9100
2018-12-29T12:59:01.529Z,9070
2018-12-29T12:59:31.470Z,9033
2018-12-29T13:00:01.467Z,9003
2018-12-29T13:00:31.506Z,8990
2018-12-29T13:01:31.538Z,9000
2018-12-29T13:02:01.566Z,9023
2018-12-29T13:02:31.592Z,9047
2018-12-29T13:03:01.672Z,9053
2018-12-29T13:03:31.695Z,9070
2018-12-29T13:04:01.677Z,9087
2018-12-29T13:04:31.784Z,9110
2018-12-29T13:05:01.756Z,9143
2018-12-29T13:05:31.781Z,9190
2018-12-29T13:06:01.871Z,9253
2018-12-29T13:06:31.865Z,9320
2018-12-29T13:07:01.918Z,9367
2018-12-29T13:07:31.911Z,9390
2018-12-29T13:08:31.993Z,9367
2018-12-29T13:09:02.031Z,9327
2018-12-29T13:09:32.055Z,9283
2018-12-29T13:10:02.055Z,9233
2018-12-29T13:10:32.090Z,9173
2018-12-29T13:11:02.188Z,9117
2018-12-29T13:11:32.200Z,9060
2018-12-29T13:12:02.186Z,9020
2018-12-29T13:12:32.210Z,8970
2018-12-29T13:13:02.218Z,8947
2018-12-29T13:13:32.323Z,8940
2018-12-29T13:14:02.354Z,8923
2018-12-29T13:14:32.376Z,8863
2018-12-29T13:15:02.360Z,8860
2018-12-29T13:15:32.440Z,8783
2018-12-29T13:16:02.439Z,8680
2018-12-29T13:16:32.495Z,8587
2018-12-29T13:17:02.507Z,8490
2018-12-29T13:17:32.561Z,8373
2018-12-29T13:18:02.698Z,8320
2018-12-29T13:18:32.629Z,8367
2018-12-29T13:19:02.634Z,8340
2018-12-29T13:19:32.789Z,8320
2018-12-29T13:20:02.689Z,8133
2018-12-29T13:20:32.757Z,7943
2018-12-29T13:21:03.008Z,7747
2018-12-29T13:21:32.770Z,7587
2018-12-29T13:22:02.797Z,7067
2018-12-29T13:23:02.863Z,7250
2018-12-29T13:23:32.934Z,7197
2018-12-29T13:24:02.921Z,7373
2018-12-29T13:24:32.987Z,7793
2018-12-29T13:25:02.991Z,7837
2018-12-29T13:25:33.043Z,7983
2018-12-29T13:26:03.103Z,8320
2018-12-29T13:26:33.123Z,8357
2018-12-29T13:27:03.141Z,8217
2018-12-29T13:27:33.191Z,8100
2018-12-29T13:28:03.220Z,8133
2018-12-29T13:28:33.235Z,8230
2018-12-29T13:29:03.239Z,8320
2018-12-29T13:29:33.302Z,8357
2018-12-29T13:30:03.279Z,8293
2018-12-29T13:30:33.325Z,8193
2018-12-29T13:31:03.410Z,8257
2018-12-29T13:31:33.419Z,8420
2018-12-29T13:32:03.461Z,8630
2018-12-29T13:32:33.487Z,8677
2018-12-29T13:33:03.549Z,8560
2018-12-29T13:33:33.540Z,8433
2018-12-29T13:34:03.599Z,8367
2018-12-29T13:34:33.617Z,8343
2018-12-29T13:35:03.650Z,8323
2018-12-29T13:35:33.676Z,8370
2018-12-29T13:36:03.759Z,8570
2018-12-29T13:36:33.740Z,8683
2018-12-29T13:37:03.802Z,8493
2018-12-29T13:37:33.796Z,8080
2018-12-29T13:38:03.932Z,7663
2018-12-29T13:38:33.860Z,7410